sensor_id;sensor_type;location;lat;lon;timestamp;P1;durP1;ratioP1;P2;durP2;ratioP2
14030;SDS011;7090;49.436;8.490;2022-09-09T00:00:40;2.70;;;2.60;;
14030;SDS011;7090;49.436;8.490;2022-09-09T00:03:31;2.70;;;2.60;;
14030;SDS011;7090;49.436;8.490;2022-09-09T00:09:18;2.70;;;2.60;;
14030;SDS011;7090;49.436;8.490;2022-09-09T00:11:48;2.50;;;2.40;;
14030;SDS011;7090;49.436;8.490;2022-09-09T00:14:38;2.60;;;2.50;;
14030;SDS011;7090;49.436;8.490;2022-09-09T00:17:21;2.20;;;2.20;;
14030;SDS011;7090;49.436;8.490;2022-09-09T00:22:36;2.20;;;2.20;;
14030;SDS011;7090;49.436;8.490;2022-09-09T00:25:14;2.67;;;2.58;;
14030;SDS011;7090;49.436;8.490;2022-09-09T00:27:51;2.83;;;2.72;;
14030;SDS011;7090;49.436;8.490;2022-09-09T00:30:18;4.43;;;2.78;;
14030;SDS011;7090;49.436;8.490;2022-09-09T00:32:55;2.20;;;2.10;;
14030;SDS011;7090;49.436;8.490;2022-09-09T00:35:27;5.88;;;2.42;;
14030;SDS011;7090;49.436;8.490;2022-09-09T00:37:55;3.53;;;2.42;;
14030;SDS011;7090;49.436;8.490;2022-09-09T00:40:35;2.00;;;2.00;;
14030;SDS011;7090;49.436;8.490;2022-09-09T00:45:56;2.47;;;2.38;;
14030;SDS011;7090;49.436;8.490;2022-09-09T00:51:15;2.47;;;2.38;;
14030;SDS011;7090;49.436;8.490;2022-09-09T00:56:54;2.20;;;2.20;;
14030;SDS011;7090;49.436;8.490;2022-09-09T01:04:53;2.88;;;2.78;;
14030;SDS011;7090;49.436;8.490;2022-09-09T01:07:19;2.60;;;2.50;;
14030;SDS011;7090;49.436;8.490;2022-09-09T01:09:58;3.45;;;3.25;;
14030;SDS011;7090;49.436;8.490;2022-09-09T01:12:41;2.33;;;2.22;;
14030;SDS011;7090;49.436;8.490;2022-09-09T01:15:18;4.00;;;2.40;;
14030;SDS011;7090;49.436;8.490;2022-09-09T01:20:53;2.63;;;2.53;;
14030;SDS011;7090;49.436;8.490;2022-09-09T01:28:45;2.33;;;2.22;;
14030;SDS011;7090;49.436;8.490;2022-09-09T01:31:20;2.70;;;2.53;;
14030;SDS011;7090;49.436;8.490;2022-09-09T01:33:51;2.20;;;2.20;;
14030;SDS011;7090;49.436;8.490;2022-09-09T01:36:31;2.30;;;2.20;;
14030;SDS011;7090;49.436;8.490;2022-09-09T01:39:12;2.25;;;2.15;;
14030;SDS011;7090;49.436;8.490;2022-09-09T01:41:38;2.47;;;2.38;;
14030;SDS011;7090;49.436;8.490;2022-09-09T01:44:04;2.08;;;1.95;;
14030;SDS011;7090;49.436;8.490;2022-09-09T01:46:32;2.30;;;2.20;;
14030;SDS011;7090;49.436;8.490;2022-09-09T01:48:58;2.38;;;2.28;;
14030;SDS011;7090;49.436;8.490;2022-09-09T01:51:25;2.38;;;2.28;;
14030;SDS011;7090;49.436;8.490;2022-09-09T01:53:51;2.67;;;2.58;;
14030;SDS011;7090;49.436;8.490;2022-09-09T01:56:20;2.53;;;2.40;;
14030;SDS011;7090;49.436;8.490;2022-09-09T02:04:41;2.55;;;2.35;;
14030;SDS011;7090;49.436;8.490;2022-09-09T02:12:44;2.60;;;2.50;;
14030;SDS011;7090;49.436;8.490;2022-09-09T02:15:17;2.30;;;2.20;;
14030;SDS011;7090;49.436;8.490;2022-09-09T02:17:50;5.60;;;3.15;;
14030;SDS011;7090;49.436;8.490;2022-09-09T02:20:17;2.35;;;2.33;;
14030;SDS011;7090;49.436;8.490;2022-09-09T02:22:44;2.60;;;2.50;;
14030;SDS011;7090;49.436;8.490;2022-09-09T02:25:12;2.38;;;2.28;;
14030;SDS011;7090;49.436;8.490;2022-09-09T02:27:41;2.72;;;2.63;;
14030;SDS011;7090;49.436;8.490;2022-09-09T02:30:10;3.20;;;3.00;;
14030;SDS011;7090;49.436;8.490;2022-09-09T02:32:36;3.20;;;3.00;;
14030;SDS011;7090;49.436;8.490;2022-09-09T02:35:12;3.30;;;3.20;;
14030;SDS011;7090;49.436;8.490;2022-09-09T02:37:39;3.42;;;3.15;;
14030;SDS011;7090;49.436;8.490;2022-09-09T02:40:08;2.80;;;2.70;;
14030;SDS011;7090;49.436;8.490;2022-09-09T02:42:43;2.90;;;2.80;;
14030;SDS011;7090;49.436;8.490;2022-09-09T02:45:11;2.90;;;2.80;;
14030;SDS011;7090;49.436;8.490;2022-09-09T02:50:33;4.43;;;3.08;;
14030;SDS011;7090;49.436;8.490;2022-09-09T02:55:51;6.95;;;3.20;;
14030;SDS011;7090;49.436;8.490;2022-09-09T02:58:29;3.13;;;3.03;;
14030;SDS011;7090;49.436;8.490;2022-09-09T03:00:54;4.70;;;3.10;;
14030;SDS011;7090;49.436;8.490;2022-09-09T03:03:22;3.28;;;3.08;;
14030;SDS011;7090;49.436;8.490;2022-09-09T03:05:48;2.88;;;2.78;;
14030;SDS011;7090;49.436;8.490;2022-09-09T03:08:14;3.17;;;2.97;;
14030;SDS011;7090;49.436;8.490;2022-09-09T03:10:40;3.03;;;2.83;;
14030;SDS011;7090;49.436;8.490;2022-09-09T03:13:05;3.35;;;2.92;;
14030;SDS011;7090;49.436;8.490;2022-09-09T03:15:32;2.97;;;2.80;;
14030;SDS011;7090;49.436;8.490;2022-09-09T03:17:58;2.75;;;2.65;;
14030;SDS011;7090;49.436;8.490;2022-09-09T03:20:24;3.17;;;3.00;;
14030;SDS011;7090;49.436;8.490;2022-09-09T03:22:51;2.88;;;2.78;;
14030;SDS011;7090;49.436;8.490;2022-09-09T03:25:17;5.20;;;4.03;;
14030;SDS011;7090;49.436;8.490;2022-09-09T03:27:43;2.70;;;2.60;;
14030;SDS011;7090;49.436;8.490;2022-09-09T03:30:08;2.67;;;2.58;;
14030;SDS011;7090;49.436;8.490;2022-09-09T03:32:34;2.97;;;2.78;;
14030;SDS011;7090;49.436;8.490;2022-09-09T03:35:00;2.40;;;2.30;;
14030;SDS011;7090;49.436;8.490;2022-09-09T03:37:25;3.47;;;3.20;;
14030;SDS011;7090;49.436;8.490;2022-09-09T03:39:51;2.85;;;2.75;;
14030;SDS011;7090;49.436;8.490;2022-09-09T03:42:19;3.03;;;2.88;;
14030;SDS011;7090;49.436;8.490;2022-09-09T03:44:48;3.35;;;3.15;;
14030;SDS011;7090;49.436;8.490;2022-09-09T03:47:18;6.07;;;3.20;;
14030;SDS011;7090;49.436;8.490;2022-09-09T03:49:46;2.70;;;2.60;;
14030;SDS011;7090;49.436;8.490;2022-09-09T03:52:13;3.00;;;2.80;;
14030;SDS011;7090;49.436;8.490;2022-09-09T03:54:39;2.95;;;2.85;;
14030;SDS011;7090;49.436;8.490;2022-09-09T03:57:06;2.70;;;2.60;;
14030;SDS011;7090;49.436;8.490;2022-09-09T03:59:31;2.90;;;2.80;;
14030;SDS011;7090;49.436;8.490;2022-09-09T04:01:57;3.63;;;3.42;;
14030;SDS011;7090;49.436;8.490;2022-09-09T04:04:24;3.80;;;3.40;;
14030;SDS011;7090;49.436;8.490;2022-09-09T04:06:51;3.13;;;2.92;;
14030;SDS011;7090;49.436;8.490;2022-09-09T04:09:17;2.80;;;2.70;;
14030;SDS011;7090;49.436;8.490;2022-09-09T04:11:42;2.95;;;2.85;;
14030;SDS011;7090;49.436;8.490;2022-09-09T04:14:08;9.55;;;3.15;;
14030;SDS011;7090;49.436;8.490;2022-09-09T04:16:34;3.22;;;3.00;;
14030;SDS011;7090;49.436;8.490;2022-09-09T04:19:01;5.25;;;3.03;;
14030;SDS011;7090;49.436;8.490;2022-09-09T04:21:29;3.15;;;3.05;;
14030;SDS011;7090;49.436;8.490;2022-09-09T04:23:55;3.25;;;3.03;;
14030;SDS011;7090;49.436;8.490;2022-09-09T04:26:21;3.30;;;3.10;;
14030;SDS011;7090;49.436;8.490;2022-09-09T04:28:46;2.65;;;2.55;;
14030;SDS011;7090;49.436;8.490;2022-09-09T04:31:16;2.58;;;2.47;;
14030;SDS011;7090;49.436;8.490;2022-09-09T04:33:48;2.60;;;2.50;;
14030;SDS011;7090;49.436;8.490;2022-09-09T04:36:14;3.05;;;2.95;;
14030;SDS011;7090;49.436;8.490;2022-09-09T04:38:40;3.00;;;2.80;;
14030;SDS011;7090;49.436;8.490;2022-09-09T04:41:06;3.20;;;3.10;;
14030;SDS011;7090;49.436;8.490;2022-09-09T04:43:32;3.15;;;2.95;;
14030;SDS011;7090;49.436;8.490;2022-09-09T04:45:59;2.75;;;2.55;;
14030;SDS011;7090;49.436;8.490;2022-09-09T04:48:24;3.50;;;3.40;;
14030;SDS011;7090;49.436;8.490;2022-09-09T04:50:54;2.90;;;2.80;;
14030;SDS011;7090;49.436;8.490;2022-09-09T04:53:20;4.32;;;3.30;;
14030;SDS011;7090;49.436;8.490;2022-09-09T04:55:47;3.38;;;3.03;;
14030;SDS011;7090;49.436;8.490;2022-09-09T04:58:13;3.20;;;3.00;;
14030;SDS011;7090;49.436;8.490;2022-09-09T05:00:39;3.20;;;3.00;;
14030;SDS011;7090;49.436;8.490;2022-09-09T05:03:05;2.92;;;2.83;;
14030;SDS011;7090;49.436;8.490;2022-09-09T05:05:31;2.90;;;2.80;;
14030;SDS011;7090;49.436;8.490;2022-09-09T05:08:04;2.78;;;2.67;;
14030;SDS011;7090;49.436;8.490;2022-09-09T05:10:32;3.08;;;2.83;;
14030;SDS011;7090;49.436;8.490;2022-09-09T05:12:58;2.53;;;2.42;;
14030;SDS011;7090;49.436;8.490;2022-09-09T05:15:24;3.20;;;2.85;;
14030;SDS011;7090;49.436;8.490;2022-09-09T05:17:50;2.67;;;2.58;;
14030;SDS011;7090;49.436;8.490;2022-09-09T05:20:17;2.55;;;2.45;;
14030;SDS011;7090;49.436;8.490;2022-09-09T05:22:43;2.80;;;2.70;;
14030;SDS011;7090;49.436;8.490;2022-09-09T05:25:09;3.55;;;2.70;;
14030;SDS011;7090;49.436;8.490;2022-09-09T05:27:34;2.50;;;2.40;;
14030;SDS011;7090;49.436;8.490;2022-09-09T05:30:00;2.50;;;2.40;;
14030;SDS011;7090;49.436;8.490;2022-09-09T05:32:26;3.20;;;3.00;;
14030;SDS011;7090;49.436;8.490;2022-09-09T05:34:52;2.55;;;2.45;;
14030;SDS011;7090;49.436;8.490;2022-09-09T05:37:18;2.60;;;2.50;;
14030;SDS011;7090;49.436;8.490;2022-09-09T05:39:44;2.40;;;2.30;;
14030;SDS011;7090;49.436;8.490;2022-09-09T05:42:10;2.58;;;2.47;;
14030;SDS011;7090;49.436;8.490;2022-09-09T05:44:35;2.72;;;2.55;;
14030;SDS011;7090;49.436;8.490;2022-09-09T05:47:02;2.90;;;2.70;;
14030;SDS011;7090;49.436;8.490;2022-09-09T05:49:28;2.47;;;2.38;;
14030;SDS011;7090;49.436;8.490;2022-09-09T05:51:53;2.67;;;2.58;;
14030;SDS011;7090;49.436;8.490;2022-09-09T05:54:19;2.60;;;2.50;;
14030;SDS011;7090;49.436;8.490;2022-09-09T05:56:45;3.00;;;2.80;;
14030;SDS011;7090;49.436;8.490;2022-09-09T05:59:10;2.80;;;2.60;;
14030;SDS011;7090;49.436;8.490;2022-09-09T06:01:37;2.40;;;2.30;;
14030;SDS011;7090;49.436;8.490;2022-09-09T06:04:07;2.60;;;2.50;;
14030;SDS011;7090;49.436;8.490;2022-09-09T06:06:34;2.60;;;2.40;;
14030;SDS011;7090;49.436;8.490;2022-09-09T06:09:05;4.93;;;2.80;;
14030;SDS011;7090;49.436;8.490;2022-09-09T06:11:34;2.33;;;2.22;;
14030;SDS011;7090;49.436;8.490;2022-09-09T06:14:01;2.40;;;2.30;;
14030;SDS011;7090;49.436;8.490;2022-09-09T06:16:28;2.80;;;2.60;;
14030;SDS011;7090;49.436;8.490;2022-09-09T06:18:55;5.90;;;2.60;;
14030;SDS011;7090;49.436;8.490;2022-09-09T06:21:42;2.60;;;2.50;;
14030;SDS011;7090;49.436;8.490;2022-09-09T06:24:09;2.40;;;2.30;;
14030;SDS011;7090;49.436;8.490;2022-09-09T06:26:36;3.08;;;2.90;;
14030;SDS011;7090;49.436;8.490;2022-09-09T06:29:05;2.83;;;2.67;;
14030;SDS011;7090;49.436;8.490;2022-09-09T06:31:32;3.13;;;2.80;;
14030;SDS011;7090;49.436;8.490;2022-09-09T06:33:59;2.90;;;2.80;;
14030;SDS011;7090;49.436;8.490;2022-09-09T06:36:27;3.67;;;3.10;;
14030;SDS011;7090;49.436;8.490;2022-09-09T06:38:54;3.05;;;2.95;;
14030;SDS011;7090;49.436;8.490;2022-09-09T06:41:21;2.80;;;2.70;;
14030;SDS011;7090;49.436;8.490;2022-09-09T06:43:48;3.03;;;2.70;;
14030;SDS011;7090;49.436;8.490;2022-09-09T06:46:15;2.85;;;2.75;;
14030;SDS011;7090;49.436;8.490;2022-09-09T06:48:46;2.60;;;2.50;;
14030;SDS011;7090;49.436;8.490;2022-09-09T06:53:41;2.47;;;2.38;;
14030;SDS011;7090;49.436;8.490;2022-09-09T06:58:34;2.65;;;2.55;;
14030;SDS011;7090;49.436;8.490;2022-09-09T07:01:06;6.55;;;2.85;;
14030;SDS011;7090;49.436;8.490;2022-09-09T07:03:32;7.10;;;2.67;;
14030;SDS011;7090;49.436;8.490;2022-09-09T07:05:58;2.90;;;2.80;;
14030;SDS011;7090;49.436;8.490;2022-09-09T07:08:25;2.60;;;2.50;;
14030;SDS011;7090;49.436;8.490;2022-09-09T07:10:51;2.83;;;2.50;;
14030;SDS011;7090;49.436;8.490;2022-09-09T07:13:26;3.60;;;2.75;;
14030;SDS011;7090;49.436;8.490;2022-09-09T07:15:52;2.40;;;2.30;;
14030;SDS011;7090;49.436;8.490;2022-09-09T07:18:18;2.30;;;2.20;;
14030;SDS011;7090;49.436;8.490;2022-09-09T07:20:52;2.58;;;2.30;;
14030;SDS011;7090;49.436;8.490;2022-09-09T07:23:19;4.50;;;2.53;;
14030;SDS011;7090;49.436;8.490;2022-09-09T07:25:45;2.60;;;2.50;;
14030;SDS011;7090;49.436;8.490;2022-09-09T07:28:10;2.25;;;2.15;;
14030;SDS011;7090;49.436;8.490;2022-09-09T07:30:36;2.28;;;2.17;;
14030;SDS011;7090;49.436;8.490;2022-09-09T07:33:02;2.67;;;2.58;;
14030;SDS011;7090;49.436;8.490;2022-09-09T07:35:28;2.40;;;2.30;;
14030;SDS011;7090;49.436;8.490;2022-09-09T07:37:54;4.13;;;2.42;;
14030;SDS011;7090;49.436;8.490;2022-09-09T07:40:19;2.20;;;2.10;;
14030;SDS011;7090;49.436;8.490;2022-09-09T07:42:46;2.75;;;2.55;;
14030;SDS011;7090;49.436;8.490;2022-09-09T07:45:12;2.28;;;2.15;;
14030;SDS011;7090;49.436;8.490;2022-09-09T07:47:39;2.40;;;2.30;;
14030;SDS011;7090;49.436;8.490;2022-09-09T07:50:07;2.22;;;2.13;;
14030;SDS011;7090;49.436;8.490;2022-09-09T07:52:34;2.70;;;2.60;;
14030;SDS011;7090;49.436;8.490;2022-09-09T07:54:59;5.43;;;2.53;;
14030;SDS011;7090;49.436;8.490;2022-09-09T07:57:27;2.10;;;2.00;;
14030;SDS011;7090;49.436;8.490;2022-09-09T07:59:55;2.63;;;2.50;;
14030;SDS011;7090;49.436;8.490;2022-09-09T08:02:21;2.17;;;2.10;;
14030;SDS011;7090;49.436;8.490;2022-09-09T08:04:48;2.70;;;2.60;;
14030;SDS011;7090;49.436;8.490;2022-09-09T08:07:14;2.58;;;2.50;;
14030;SDS011;7090;49.436;8.490;2022-09-09T08:09:41;2.78;;;2.47;;
14030;SDS011;7090;49.436;8.490;2022-09-09T08:12:06;2.35;;;2.25;;
14030;SDS011;7090;49.436;8.490;2022-09-09T08:14:33;2.33;;;2.00;;
14030;SDS011;7090;49.436;8.490;2022-09-09T08:16:59;2.55;;;2.33;;
14030;SDS011;7090;49.436;8.490;2022-09-09T08:19:25;2.00;;;1.90;;
14030;SDS011;7090;49.436;8.490;2022-09-09T08:21:51;2.83;;;2.35;;
14030;SDS011;7090;49.436;8.490;2022-09-09T08:24:16;4.80;;;3.35;;
14030;SDS011;7090;49.436;8.490;2022-09-09T08:26:44;2.83;;;2.72;;
14030;SDS011;7090;49.436;8.490;2022-09-09T08:29:12;8.55;;;3.50;;
14030;SDS011;7090;49.436;8.490;2022-09-09T08:31:43;8.10;;;3.40;;
14030;SDS011;7090;49.436;8.490;2022-09-09T08:34:11;3.40;;;3.20;;
14030;SDS011;7090;49.436;8.490;2022-09-09T08:36:40;2.80;;;2.70;;
14030;SDS011;7090;49.436;8.490;2022-09-09T08:39:07;3.05;;;2.85;;
14030;SDS011;7090;49.436;8.490;2022-09-09T08:47:12;2.83;;;2.72;;
14030;SDS011;7090;49.436;8.490;2022-09-09T08:49:50;6.80;;;3.03;;
14030;SDS011;7090;49.436;8.490;2022-09-09T08:57:51;2.80;;;2.70;;
14030;SDS011;7090;49.436;8.490;2022-09-09T09:00:19;2.95;;;2.75;;
14030;SDS011;7090;49.436;8.490;2022-09-09T09:05:28;2.97;;;2.88;;
14030;SDS011;7090;49.436;8.490;2022-09-09T09:10:57;3.28;;;3.08;;
14030;SDS011;7090;49.436;8.490;2022-09-09T09:15:55;2.65;;;2.55;;
14030;SDS011;7090;49.436;8.490;2022-09-09T09:18:25;5.18;;;2.20;;
14030;SDS011;7090;49.436;8.490;2022-09-09T09:23:32;2.05;;;1.80;;
14030;SDS011;7090;49.436;8.490;2022-09-09T09:26:06;2.17;;;2.08;;
14030;SDS011;7090;49.436;8.490;2022-09-09T09:28:36;2.55;;;2.03;;
14030;SDS011;7090;49.436;8.490;2022-09-09T09:31:05;2.60;;;2.40;;
14030;SDS011;7090;49.436;8.490;2022-09-09T09:36:17;4.30;;;2.38;;
14030;SDS011;7090;49.436;8.490;2022-09-09T09:38:57;2.97;;;2.28;;
14030;SDS011;7090;49.436;8.490;2022-09-09T09:44:18;2.03;;;2.00;;
14030;SDS011;7090;49.436;8.490;2022-09-09T09:46:48;7.03;;;6.38;;
14030;SDS011;7090;49.436;8.490;2022-09-09T09:49:14;7.28;;;6.35;;
14030;SDS011;7090;49.436;8.490;2022-09-09T09:51:39;3.47;;;3.35;;
14030;SDS011;7090;49.436;8.490;2022-09-09T09:54:17;8.40;;;4.55;;
14030;SDS011;7090;49.436;8.490;2022-09-09T09:57:12;4.88;;;4.43;;
14030;SDS011;7090;49.436;8.490;2022-09-09T09:59:40;3.70;;;3.60;;
14030;SDS011;7090;49.436;8.490;2022-09-09T10:02:12;3.88;;;3.75;;
14030;SDS011;7090;49.436;8.490;2022-09-09T10:04:59;4.70;;;4.60;;
14030;SDS011;7090;49.436;8.490;2022-09-09T10:07:26;4.53;;;4.43;;
14030;SDS011;7090;49.436;8.490;2022-09-09T10:09:55;4.40;;;4.00;;
14030;SDS011;7090;49.436;8.490;2022-09-09T10:15:28;2.42;;;2.33;;
14030;SDS011;7090;49.436;8.490;2022-09-09T10:21:28;3.20;;;3.10;;
14030;SDS011;7090;49.436;8.490;2022-09-09T10:38:40;3.45;;;2.50;;
14030;SDS011;7090;49.436;8.490;2022-09-09T10:46:26;8.48;;;2.95;;
14030;SDS011;7090;49.436;8.490;2022-09-09T10:52:11;4.13;;;3.10;;
14030;SDS011;7090;49.436;8.490;2022-09-09T10:55:02;4.13;;;2.55;;
14030;SDS011;7090;49.436;8.490;2022-09-09T10:57:46;1.90;;;1.90;;
14030;SDS011;7090;49.436;8.490;2022-09-09T11:00:15;2.42;;;2.33;;
14030;SDS011;7090;49.436;8.490;2022-09-09T11:02:45;2.70;;;2.15;;
14030;SDS011;7090;49.436;8.490;2022-09-09T11:08:21;3.78;;;2.33;;
14030;SDS011;7090;49.436;8.490;2022-09-09T11:10:58;4.35;;;2.40;;
14030;SDS011;7090;49.436;8.490;2022-09-09T11:13:57;2.63;;;2.40;;
14030;SDS011;7090;49.436;8.490;2022-09-09T11:17:28;6.50;;;2.55;;
14030;SDS011;7090;49.436;8.490;2022-09-09T11:20:00;3.78;;;2.03;;
14030;SDS011;7090;49.436;8.490;2022-09-09T11:27:44;3.67;;;2.35;;
14030;SDS011;7090;49.436;8.490;2022-09-09T11:41:46;1.92;;;1.80;;
14030;SDS011;7090;49.436;8.490;2022-09-09T11:44:12;3.05;;;1.80;;
14030;SDS011;7090;49.436;8.490;2022-09-09T11:46:45;3.05;;;1.60;;
14030;SDS011;7090;49.436;8.490;2022-09-09T11:49:25;3.47;;;2.25;;
14030;SDS011;7090;49.436;8.490;2022-09-09T11:52:18;1.50;;;1.50;;
14030;SDS011;7090;49.436;8.490;2022-09-09T11:54:46;1.73;;;1.73;;
14030;SDS011;7090;49.436;8.490;2022-09-09T11:57:22;6.22;;;2.13;;
14030;SDS011;7090;49.436;8.490;2022-09-09T11:59:51;4.65;;;2.60;;
14030;SDS011;7090;49.436;8.490;2022-09-09T12:02:21;1.77;;;1.67;;
14030;SDS011;7090;49.436;8.490;2022-09-09T12:04:56;1.50;;;1.40;;
14030;SDS011;7090;49.436;8.490;2022-09-09T12:10:33;1.25;;;1.23;;
14030;SDS011;7090;49.436;8.490;2022-09-09T12:13:22;2.13;;;1.50;;
14030;SDS011;7090;49.436;8.490;2022-09-09T12:15:53;4.70;;;1.80;;
14030;SDS011;7090;49.436;8.490;2022-09-09T12:18:24;2.00;;;1.65;;
14030;SDS011;7090;49.436;8.490;2022-09-09T12:21:19;2.40;;;1.70;;
14030;SDS011;7090;49.436;8.490;2022-09-09T12:24:11;7.15;;;2.45;;
14030;SDS011;7090;49.436;8.490;2022-09-09T12:26:51;1.90;;;1.80;;
14030;SDS011;7090;49.436;8.490;2022-09-09T12:29:26;1.90;;;1.80;;
14030;SDS011;7090;49.436;8.490;2022-09-09T12:32:06;8.75;;;2.65;;
14030;SDS011;7090;49.436;8.490;2022-09-09T12:34:49;1.90;;;1.90;;
14030;SDS011;7090;49.436;8.490;2022-09-09T12:37:57;1.60;;;1.60;;
14030;SDS011;7090;49.436;8.490;2022-09-09T12:40:29;1.70;;;1.70;;
14030;SDS011;7090;49.436;8.490;2022-09-09T12:42:57;1.80;;;1.80;;
14030;SDS011;7090;49.436;8.490;2022-09-09T12:45:27;1.30;;;1.30;;
14030;SDS011;7090;49.436;8.490;2022-09-09T12:50:33;1.42;;;1.42;;
14030;SDS011;7090;49.436;8.490;2022-09-09T12:53:09;2.38;;;1.80;;
14030;SDS011;7090;49.436;8.490;2022-09-09T12:55:40;1.80;;;1.70;;
14030;SDS011;7090;49.436;8.490;2022-09-09T12:58:24;2.38;;;1.95;;
14030;SDS011;7090;49.436;8.490;2022-09-09T13:00:53;2.08;;;1.88;;
14030;SDS011;7090;49.436;8.490;2022-09-09T13:03:23;2.13;;;2.03;;
14030;SDS011;7090;49.436;8.490;2022-09-09T13:05:50;1.70;;;1.60;;
14030;SDS011;7090;49.436;8.490;2022-09-09T13:08:17;1.52;;;1.52;;
14030;SDS011;7090;49.436;8.490;2022-09-09T13:13:28;1.55;;;1.50;;
14030;SDS011;7090;49.436;8.490;2022-09-09T13:15:57;1.20;;;1.20;;
14030;SDS011;7090;49.436;8.490;2022-09-09T13:18:25;1.30;;;1.30;;
14030;SDS011;7090;49.436;8.490;2022-09-09T13:20:54;1.30;;;1.30;;
14030;SDS011;7090;49.436;8.490;2022-09-09T13:23:30;1.35;;;1.35;;
14030;SDS011;7090;49.436;8.490;2022-09-09T13:26:04;1.30;;;1.30;;
14030;SDS011;7090;49.436;8.490;2022-09-09T13:28:45;1.60;;;1.60;;
14030;SDS011;7090;49.436;8.490;2022-09-09T13:34:10;1.70;;;1.70;;
14030;SDS011;7090;49.436;8.490;2022-09-09T13:36:52;2.00;;;1.90;;
14030;SDS011;7090;49.436;8.490;2022-09-09T13:39:19;1.65;;;1.65;;
14030;SDS011;7090;49.436;8.490;2022-09-09T13:41:45;1.70;;;1.70;;
14030;SDS011;7090;49.436;8.490;2022-09-09T13:44:20;1.30;;;1.30;;
14030;SDS011;7090;49.436;8.490;2022-09-09T13:47:01;1.95;;;1.50;;
14030;SDS011;7090;49.436;8.490;2022-09-09T13:49:29;1.40;;;1.40;;
14030;SDS011;7090;49.436;8.490;2022-09-09T13:52:31;1.52;;;1.52;;
14030;SDS011;7090;49.436;8.490;2022-09-09T13:54:51;1.65;;;1.55;;
14030;SDS011;7090;49.436;8.490;2022-09-09T13:57:20;1.55;;;1.55;;
14030;SDS011;7090;49.436;8.490;2022-09-09T13:59:47;1.73;;;1.63;;
14030;SDS011;7090;49.436;8.490;2022-09-09T14:02:16;1.30;;;1.30;;
14030;SDS011;7090;49.436;8.490;2022-09-09T14:04:42;1.98;;;1.60;;
14030;SDS011;7090;49.436;8.490;2022-09-09T14:07:09;1.30;;;1.30;;
14030;SDS011;7090;49.436;8.490;2022-09-09T14:09:38;1.23;;;1.23;;
14030;SDS011;7090;49.436;8.490;2022-09-09T14:12:04;1.65;;;1.30;;
14030;SDS011;7090;49.436;8.490;2022-09-09T14:14:30;2.28;;;2.03;;
14030;SDS011;7090;49.436;8.490;2022-09-09T14:16:55;1.30;;;1.30;;
14030;SDS011;7090;49.436;8.490;2022-09-09T14:19:21;1.65;;;1.55;;
14030;SDS011;7090;49.436;8.490;2022-09-09T14:21:47;1.50;;;1.50;;
14030;SDS011;7090;49.436;8.490;2022-09-09T14:24:13;1.70;;;1.60;;
14030;SDS011;7090;49.436;8.490;2022-09-09T14:26:39;1.48;;;1.40;;
14030;SDS011;7090;49.436;8.490;2022-09-09T14:29:05;1.30;;;1.30;;
14030;SDS011;7090;49.436;8.490;2022-09-09T14:31:31;1.80;;;1.70;;
14030;SDS011;7090;49.436;8.490;2022-09-09T14:33:57;1.40;;;1.40;;
14030;SDS011;7090;49.436;8.490;2022-09-09T14:36:24;1.55;;;1.55;;
14030;SDS011;7090;49.436;8.490;2022-09-09T14:38:49;1.38;;;1.38;;
14030;SDS011;7090;49.436;8.490;2022-09-09T14:41:16;1.60;;;1.50;;
14030;SDS011;7090;49.436;8.490;2022-09-09T14:43:43;1.15;;;1.15;;
14030;SDS011;7090;49.436;8.490;2022-09-09T14:46:10;1.20;;;1.20;;
14030;SDS011;7090;49.436;8.490;2022-09-09T14:48:37;2.05;;;1.48;;
14030;SDS011;7090;49.436;8.490;2022-09-09T14:51:09;1.55;;;1.50;;
14030;SDS011;7090;49.436;8.490;2022-09-09T14:53:40;1.13;;;1.13;;
14030;SDS011;7090;49.436;8.490;2022-09-09T14:56:11;1.38;;;1.38;;
14030;SDS011;7090;49.436;8.490;2022-09-09T14:58:42;1.40;;;1.40;;
14030;SDS011;7090;49.436;8.490;2022-09-09T15:01:09;2.22;;;2.13;;
14030;SDS011;7090;49.436;8.490;2022-09-09T15:03:37;3.30;;;2.67;;
14030;SDS011;7090;49.436;8.490;2022-09-09T15:06:05;3.00;;;2.50;;
14030;SDS011;7090;49.436;8.490;2022-09-09T15:08:35;2.70;;;2.60;;
14030;SDS011;7090;49.436;8.490;2022-09-09T15:11:02;5.30;;;4.57;;
14030;SDS011;7090;49.436;8.490;2022-09-09T15:13:29;5.30;;;4.88;;
14030;SDS011;7090;49.436;8.490;2022-09-09T15:15:54;5.93;;;5.38;;
14030;SDS011;7090;49.436;8.490;2022-09-09T15:18:20;6.40;;;5.90;;
14030;SDS011;7090;49.436;8.490;2022-09-09T15:20:46;7.40;;;6.10;;
14030;SDS011;7090;49.436;8.490;2022-09-09T15:23:12;6.03;;;5.78;;
14030;SDS011;7090;49.436;8.490;2022-09-09T15:25:39;5.43;;;4.80;;
14030;SDS011;7090;49.436;8.490;2022-09-09T15:28:24;5.07;;;4.88;;
14030;SDS011;7090;49.436;8.490;2022-09-09T15:30:51;4.70;;;4.50;;
14030;SDS011;7090;49.436;8.490;2022-09-09T15:33:21;4.80;;;4.50;;
14030;SDS011;7090;49.436;8.490;2022-09-09T15:35:47;4.20;;;4.10;;
14030;SDS011;7090;49.436;8.490;2022-09-09T15:38:13;4.75;;;4.55;;
14030;SDS011;7090;49.436;8.490;2022-09-09T15:40:39;5.22;;;5.03;;
14030;SDS011;7090;49.436;8.490;2022-09-09T15:43:05;5.20;;;5.00;;
14030;SDS011;7090;49.436;8.490;2022-09-09T15:45:33;5.50;;;5.30;;
14030;SDS011;7090;49.436;8.490;2022-09-09T15:48:02;6.43;;;6.13;;
14030;SDS011;7090;49.436;8.490;2022-09-09T15:50:28;5.38;;;5.18;;
14030;SDS011;7090;49.436;8.490;2022-09-09T15:52:56;5.93;;;5.63;;
14030;SDS011;7090;49.436;8.490;2022-09-09T15:55:22;4.80;;;4.60;;
14030;SDS011;7090;49.436;8.490;2022-09-09T15:57:49;5.03;;;4.82;;
14030;SDS011;7090;49.436;8.490;2022-09-09T16:00:15;7.90;;;4.60;;
14030;SDS011;7090;49.436;8.490;2022-09-09T16:02:40;4.10;;;4.00;;
14030;SDS011;7090;49.436;8.490;2022-09-09T16:05:07;3.65;;;3.55;;
14030;SDS011;7090;49.436;8.490;2022-09-09T16:07:33;2.80;;;2.70;;
14030;SDS011;7090;49.436;8.490;2022-09-09T16:09:59;3.28;;;3.05;;
14030;SDS011;7090;49.436;8.490;2022-09-09T16:12:25;3.30;;;3.20;;
14030;SDS011;7090;49.436;8.490;2022-09-09T16:14:51;3.35;;;3.25;;
14030;SDS011;7090;49.436;8.490;2022-09-09T16:17:17;2.78;;;2.67;;
14030;SDS011;7090;49.436;8.490;2022-09-09T16:19:44;3.40;;;3.30;;
14030;SDS011;7090;49.436;8.490;2022-09-09T16:22:10;3.00;;;2.90;;
14030;SDS011;7090;49.436;8.490;2022-09-09T16:24:36;2.80;;;2.70;;
14030;SDS011;7090;49.436;8.490;2022-09-09T16:27:02;2.75;;;2.65;;
14030;SDS011;7090;49.436;8.490;2022-09-09T16:29:28;3.17;;;3.08;;
14030;SDS011;7090;49.436;8.490;2022-09-09T16:31:53;3.53;;;3.33;;
14030;SDS011;7090;49.436;8.490;2022-09-09T16:34:20;3.00;;;2.90;;
14030;SDS011;7090;49.436;8.490;2022-09-09T16:36:46;3.38;;;3.28;;
14030;SDS011;7090;49.436;8.490;2022-09-09T16:39:17;2.90;;;2.80;;
14030;SDS011;7090;49.436;8.490;2022-09-09T16:41:44;2.90;;;2.80;;
14030;SDS011;7090;49.436;8.490;2022-09-09T16:44:12;2.97;;;2.88;;
14030;SDS011;7090;49.436;8.490;2022-09-09T16:46:41;3.00;;;2.90;;
14030;SDS011;7090;49.436;8.490;2022-09-09T16:49:08;3.67;;;3.25;;
14030;SDS011;7090;49.436;8.490;2022-09-09T16:51:36;2.70;;;2.60;;
14030;SDS011;7090;49.436;8.490;2022-09-09T16:54:04;2.60;;;2.50;;
14030;SDS011;7090;49.436;8.490;2022-09-09T16:56:38;2.63;;;2.53;;
14030;SDS011;7090;49.436;8.490;2022-09-09T16:59:08;2.50;;;2.40;;
14030;SDS011;7090;49.436;8.490;2022-09-09T17:01:39;2.30;;;2.30;;
14030;SDS011;7090;49.436;8.490;2022-09-09T17:04:07;2.50;;;2.40;;
14030;SDS011;7090;49.436;8.490;2022-09-09T17:06:38;2.35;;;2.30;;
14030;SDS011;7090;49.436;8.490;2022-09-09T17:09:07;2.63;;;2.53;;
14030;SDS011;7090;49.436;8.490;2022-09-09T17:11:34;2.30;;;2.30;;
14030;SDS011;7090;49.436;8.490;2022-09-09T17:14:01;2.58;;;2.47;;
14030;SDS011;7090;49.436;8.490;2022-09-09T17:16:28;3.08;;;2.90;;
14030;SDS011;7090;49.436;8.490;2022-09-09T17:18:55;2.72;;;2.55;;
14030;SDS011;7090;49.436;8.490;2022-09-09T17:21:22;2.50;;;2.40;;
14030;SDS011;7090;49.436;8.490;2022-09-09T17:23:50;2.25;;;2.15;;
14030;SDS011;7090;49.436;8.490;2022-09-09T17:26:18;2.17;;;2.08;;
14030;SDS011;7090;49.436;8.490;2022-09-09T17:28:46;2.10;;;2.00;;
14030;SDS011;7090;49.436;8.490;2022-09-09T17:31:13;4.20;;;2.30;;
14030;SDS011;7090;49.436;8.490;2022-09-09T17:33:41;2.05;;;2.05;;